Time;durP1;ratioP1;P1;durP2;ratioP2;P2;SDS_P1;SDS_P2;PMS_P1;PMS_P2;Temp;Humidity;BMP_temperature;BMP_pressure;BME280_temperature;BME280_humidity;BME280_pressure;Samples;Min_cycle;Max_cycle;Signal;HPM_P1;HPM_P2
2021/10/13 00:00:26;;;;;;;6.90;4.77;;;9.30;99.90;;;;;;5094818;28;20634;-62
2021/10/13 00:02:52;;;;;;;7.43;4.60;;;9.20;99.90;;;;;;5093623;28;20114;-61
2021/10/13 00:05:17;;;;;;;8.77;4.90;;;9.30;99.90;;;;;;5094870;28;20426;-62
2021/10/13 00:07:43;;;;;;;8.10;5.10;;;9.30;99.90;;;;;;5094813;28;20043;-62
2021/10/13 00:10:09;;;;;;;11.80;5.27;;;9.10;99.90;;;;;;5094998;28;20031;-62
2021/10/13 00:12:34;;;;;;;7.93;5.17;;;9.10;99.90;;;;;;5095018;28;20043;-62
2021/10/13 00:15:05;;;;;;;7.53;4.70;;;9.00;99.90;;;;;;5094743;28;20107;-62
2021/10/13 00:17:31;;;;;;;7.50;4.72;;;9.20;99.90;;;;;;5095774;28;20117;-62
2021/10/13 00:19:57;;;;;;;8.60;5.03;;;9.20;99.90;;;;;;5095326;28;20040;-61
2021/10/13 00:22:23;;;;;;;9.65;4.85;;;9.10;99.90;;;;;;5095211;28;20016;-61
2021/10/13 00:24:48;;;;;;;11.35;6.07;;;9.10;99.90;;;;;;5094728;28;20031;-61
2021/10/13 00:27:14;;;;;;;12.50;6.00;;;9.00;99.90;;;;;;5095202;28;20024;-62
2021/10/13 00:29:40;;;;;;;8.53;5.87;;;8.90;99.90;;;;;;5094936;28;20028;-62
2021/10/13 00:32:06;;;;;;;8.97;6.17;;;8.80;99.90;;;;;;5094566;28;20028;-62
2021/10/13 00:34:32;;;;;;;8.48;5.47;;;8.80;99.90;;;;;;5094464;28;20039;-62
2021/10/13 00:36:58;;;;;;;9.70;6.10;;;8.80;99.90;;;;;;5092916;28;20024;-62
2021/10/13 00:39:24;;;;;;;9.38;5.53;;;8.80;99.90;;;;;;5094485;28;20154;-61
2021/10/13 00:41:50;;;;;;;9.47;6.10;;;8.80;99.90;;;;;;5094316;28;20061;-61
2021/10/13 00:44:16;;;;;;;10.30;5.83;;;8.80;99.90;;;;;;5094745;28;20020;-62
2021/10/13 00:46:41;;;;;;;12.55;5.57;;;8.80;99.90;;;;;;5094347;28;20028;-62
2021/10/13 00:49:07;;;;;;;8.60;5.80;;;8.80;99.90;;;;;;5094854;28;20476;-62
2021/10/13 00:51:34;;;;;;;9.93;5.82;;;8.80;99.90;;;;;;5097858;28;20433;-62
2021/10/13 00:54:00;;;;;;;9.77;6.43;;;8.70;99.90;;;;;;5096923;28;20105;-56
2021/10/13 00:56:26;;;;;;;8.60;5.78;;;8.70;99.90;;;;;;5093945;28;20030;-62
2021/10/13 00:58:52;;;;;;;9.50;6.65;;;8.60;99.90;;;;;;5096577;28;20099;-60
2021/10/13 01:01:26;;;;;;;8.32;6.50;;;8.50;99.90;;;;;;5075722;28;20027;-61
2021/10/13 01:03:52;;;;;;;10.13;6.05;;;8.50;99.90;;;;;;5094185;28;20058;-62
2021/10/13 01:06:42;;;;;;;9.97;6.70;;;8.50;99.90;;;;;;5075426;28;20114;-62
2021/10/13 01:09:11;;;;;;;8.93;5.95;;;8.50;99.90;;;;;;5093460;28;20023;-62
2021/10/13 01:12:01;;;;;;;9.20;6.57;;;8.80;99.90;;;;;;5075289;28;20556;-62
2021/10/13 01:14:45;;;;;;;11.70;6.30;;;8.70;99.90;;;;;;5093897;28;20079;-62
2021/10/13 01:17:28;;;;;;;10.20;6.70;;;8.60;99.90;;;;;;5094388;28;20020;-61
2021/10/13 01:20:11;;;;;;;11.55;6.60;;;8.70;99.90;;;;;;5075428;28;20046;-62
2021/10/13 01:22:59;;;;;;;8.52;6.22;;;8.60;99.90;;;;;;5075643;28;20353;-62
2021/10/13 01:25:46;;;;;;;10.18;6.72;;;8.60;99.90;;;;;;5093802;28;20029;-61
2021/10/13 01:28:20;;;;;;;11.05;7.18;;;8.60;99.90;;;;;;5094229;28;20380;-60
2021/10/13 01:31:13;;;;;;;10.50;6.60;;;8.50;99.90;;;;;;5093369;28;20039;-61
2021/10/13 01:33:43;;;;;;;10.57;6.35;;;8.50;99.90;;;;;;5093616;28;20031;-61
2021/10/13 01:36:12;;;;;;;12.77;7.22;;;8.40;99.90;;;;;;5093803;28;20047;-62
2021/10/13 01:38:46;;;;;;;10.70;6.93;;;8.40;99.90;;;;;;5094036;28;20317;-62
2021/10/13 01:41:13;;;;;;;9.60;6.40;;;8.40;99.90;;;;;;5093521;28;20027;-59
2021/10/13 01:43:44;;;;;;;11.63;7.18;;;8.40;99.90;;;;;;5093073;28;20020;-60
2021/10/13 01:46:10;;;;;;;9.63;5.95;;;8.40;99.90;;;;;;5091768;28;20107;-62
2021/10/13 01:48:36;;;;;;;13.90;7.32;;;8.50;99.90;;;;;;5093185;28;20095;-62
2021/10/13 01:51:02;;;;;;;;;;;8.50;99.90;;;;;;5075173;28;20024;-58
2021/10/13 01:53:30;;;;;;;12.75;7.05;;;8.50;99.90;;;;;;5092967;28;19926;-58
2021/10/13 01:55:58;;;;;;;12.10;6.60;;;8.40;99.90;;;;;;5092900;28;20023;-57
2021/10/13 01:58:25;;;;;;;10.82;6.90;;;8.40;99.90;;;;;;5074760;28;20036;-60
2021/10/13 02:00:52;;;;;;;11.10;6.97;;;8.40;99.90;;;;;;5092984;28;20024;-61
2021/10/13 02:03:20;;;;;;;12.70;6.45;;;8.50;99.90;;;;;;5093048;28;20024;-58
2021/10/13 02:05:49;;;;;;;9.93;7.43;;;8.40;99.90;;;;;;5092819;28;20028;-56
2021/10/13 02:08:16;;;;;;;13.43;7.57;;;8.40;99.90;;;;;;5092779;28;20017;-60
2021/10/13 02:10:46;;;;;;;11.15;7.43;;;8.30;99.90;;;;;;5092725;28;20078;-56
2021/10/13 02:13:13;;;;;;;12.48;7.43;;;8.30;99.90;;;;;;5091669;28;20032;-61
2021/10/13 02:15:42;;;;;;;10.50;6.80;;;8.30;99.90;;;;;;5091433;28;20365;-61
2021/10/13 02:18:13;;;;;;;13.48;7.15;;;8.30;99.90;;;;;;5092956;28;20012;-62
2021/10/13 02:20:39;;;;;;;16.00;7.45;;;8.20;99.90;;;;;;5128867;22;20129;-65
2021/10/13 02:23:07;;;;;;;11.32;7.68;;;8.20;99.90;;;;;;5135778;28;20118;-65
2021/10/13 02:25:37;;;;;;;12.18;7.72;;;8.20;99.90;;;;;;5134687;28;20110;-66
2021/10/13 02:28:11;;;;;;;10.90;7.40;;;8.10;99.90;;;;;;5134152;28;20070;-66
2021/10/13 02:30:39;;;;;;;11.23;7.53;;;8.10;99.90;;;;;;5134050;28;20091;-65
2021/10/13 02:33:05;;;;;;;12.18;7.80;;;8.20;99.90;;;;;;5134422;28;20055;-67
2021/10/13 02:35:31;;;;;;;11.55;7.28;;;8.10;99.90;;;;;;5116071;28;20057;-66
2021/10/13 02:37:57;;;;;;;10.90;8.00;;;8.10;99.90;;;;;;5135031;28;20027;-66
2021/10/13 02:40:22;;;;;;;11.93;7.77;;;8.00;99.90;;;;;;5134465;28;20410;-66
2021/10/13 02:42:48;;;;;;;12.13;7.33;;;8.00;99.90;;;;;;5134724;28;20256;-66
2021/10/13 02:45:14;;;;;;;11.60;7.78;;;8.00;99.90;;;;;;5134454;28;20447;-66
2021/10/13 02:47:47;;;;;;;13.55;8.07;;;8.00;99.90;;;;;;5134300;28;20395;-66
2021/10/13 02:50:35;;;;;;;14.18;7.95;;;8.00;99.90;;;;;;5134020;28;20104;-66
2021/10/13 02:53:08;;;;;;;10.52;7.07;;;7.90;99.90;;;;;;5134350;28;20023;-67
2021/10/13 02:55:48;;;;;;;10.10;6.90;;;7.90;99.90;;;;;;5133868;28;20499;-67
2021/10/13 02:58:31;;;;;;;11.02;7.05;;;7.90;99.90;;;;;;5134622;28;20023;-67
2021/10/13 03:01:00;;;;;;;13.27;8.23;;;7.80;99.90;;;;;;5134274;28;20030;-67
2021/10/13 03:03:34;;;;;;;47.22;26.23;;;7.80;99.90;;;;;;5115508;28;20019;-66
2021/10/13 03:06:03;;;;;;;25.85;15.45;;;7.70;99.90;;;;;;5115827;28;20030;-67
2021/10/13 03:08:32;;;;;;;27.90;16.55;;;7.60;99.90;;;;;;5134094;28;20030;-67
2021/10/13 03:11:00;;;;;;;21.30;12.70;;;7.50;99.90;;;;;;5116611;28;20462;-66
2021/10/13 03:13:31;;;;;;;15.40;10.18;;;7.50;99.90;;;;;;5135475;28;20390;-67
2021/10/13 03:15:58;;;;;;;11.88;7.53;;;7.50;99.90;;;;;;5134319;28;20084;-66
2021/10/13 03:18:26;;;;;;;11.07;7.55;;;7.50;99.90;;;;;;5134036;27;20023;-67
2021/10/13 03:20:52;;;;;;;10.52;6.63;;;7.40;99.90;;;;;;5137440;27;20544;-67
2021/10/13 03:23:19;;;;;;;11.13;6.68;;;7.40;99.90;;;;;;5137575;27;20387;-67
2021/10/13 03:25:45;;;;;;;;;;;7.40;99.90;;;;;;5137955;27;20102;-67
2021/10/13 03:28:13;;;;;;;11.30;6.82;;;7.30;99.90;;;;;;5119032;27;20256;-67
2021/10/13 03:30:38;;;;;;;12.23;8.93;;;7.30;99.90;;;;;;5119156;27;20053;-65
2021/10/13 03:33:04;;;;;;;12.57;7.07;;;7.30;99.90;;;;;;5118900;27;20475;-67
2021/10/13 03:35:32;;;;;;;10.77;6.27;;;7.30;99.90;;;;;;5137516;27;20023;-67
2021/10/13 03:38:00;;;;;;;10.35;6.85;;;7.30;99.90;;;;;;5137906;27;20030;-67
2021/10/13 03:40:27;;;;;;;14.05;8.00;;;7.40;99.90;;;;;;5137353;27;20026;-67
2021/10/13 03:42:53;;;;;;;9.90;6.93;;;7.30;99.90;;;;;;5137152;27;20027;-67
2021/10/13 03:45:21;;;;;;;11.30;7.97;;;7.30;99.90;;;;;;5118641;27;20023;-67
2021/10/13 03:47:47;;;;;;;11.18;6.97;;;7.20;99.90;;;;;;5119113;27;20052;-67
2021/10/13 03:50:15;;;;;;;12.70;6.80;;;7.20;99.90;;;;;;5137226;27;20034;-67
2021/10/13 03:52:41;;;;;;;11.68;6.50;;;7.10;99.90;;;;;;5137879;27;20091;-67
2021/10/13 03:55:09;;;;;;;11.13;6.38;;;7.10;99.90;;;;;;5137799;27;20019;-67
2021/10/13 03:57:35;;;;;;;13.05;7.20;;;7.10;99.90;;;;;;5137098;27;20494;-67
2021/10/13 04:00:03;;;;;;;14.50;7.03;;;7.10;99.90;;;;;;5137085;27;20027;-67
2021/10/13 04:02:29;;;;;;;10.32;6.75;;;7.10;99.90;;;;;;5136962;27;20479;-66
2021/10/13 04:04:55;;;;;;;12.57;7.13;;;7.10;99.90;;;;;;5137676;27;20038;-66
2021/10/13 04:07:20;;;;;;;9.07;5.73;;;7.00;99.90;;;;;;5118366;27;20027;-66
2021/10/13 04:09:46;;;;;;;11.30;6.10;;;7.10;99.90;;;;;;5118308;27;20038;-66
2021/10/13 04:12:12;;;;;;;11.70;6.57;;;7.20;99.90;;;;;;5137063;27;20027;-65
2021/10/13 04:14:37;;;;;;;11.43;6.30;;;7.20;99.90;;;;;;5122511;27;20057;-67
2021/10/13 04:17:03;;;;;;;11.53;7.03;;;7.20;99.90;;;;;;5144221;27;20023;-66
2021/10/13 04:19:28;;;;;;;10.57;6.87;;;7.10;99.90;;;;;;5137659;27;20050;-66
2021/10/13 04:21:54;;;;;;;12.27;6.40;;;7.10;99.90;;;;;;5137433;27;20265;-66
2021/10/13 04:24:20;;;;;;;8.53;5.77;;;7.10;99.90;;;;;;5136443;27;20050;-66
2021/10/13 04:26:45;;;;;;;11.13;6.60;;;7.00;99.90;;;;;;5136677;27;20122;-66
2021/10/13 04:29:11;;;;;;;12.77;7.97;;;7.00;99.90;;;;;;5117710;27;20034;-66
2021/10/13 04:31:37;;;;;;;11.53;6.63;;;7.00;99.90;;;;;;5135077;27;20035;-66
2021/10/13 04:34:02;;;;;;;9.63;6.50;;;7.10;99.90;;;;;;5136064;27;20110;-62
2021/10/13 04:36:28;;;;;;;10.87;7.40;;;7.10;99.90;;;;;;5117526;27;20027;-63
2021/10/13 04:38:53;;;;;;;12.60;7.27;;;7.10;99.90;;;;;;5135880;27;20026;-64
2021/10/13 04:41:19;;;;;;;12.60;7.40;;;7.10;99.90;;;;;;5136381;27;20481;-64
2021/10/13 04:43:44;;;;;;;16.50;7.83;;;7.20;99.90;;;;;;5117514;27;20027;-64
2021/10/13 04:46:10;;;;;;;14.30;7.53;;;7.30;99.90;;;;;;5136228;27;20042;-64
2021/10/13 04:48:36;;;;;;;13.15;8.32;;;7.30;99.90;;;;;;5136040;27;20035;-64
2021/10/13 04:51:02;;;;;;;13.40;8.57;;;7.30;99.90;;;;;;5117219;27;20049;-64
2021/10/13 04:53:27;;;;;;;11.53;6.87;;;7.30;99.90;;;;;;5136251;27;20027;-65
2021/10/13 04:55:54;;;;;;;13.40;7.00;;;7.60;99.90;;;;;;5135991;27;20506;-63
2021/10/13 04:58:19;;;;;;;9.85;6.50;;;7.90;99.90;;;;;;5117553;27;20034;-65
2021/10/13 05:00:45;;;;;;;11.87;7.23;;;7.90;99.90;;;;;;5116949;27;20428;-62
2021/10/13 05:03:11;;;;;;;14.43;7.23;;;7.80;99.90;;;;;;5117103;27;20428;-62
2021/10/13 05:05:37;;;;;;;12.33;7.20;;;7.70;99.90;;;;;;5116721;27;20043;-59
2021/10/13 05:08:04;;;;;;;12.45;7.20;;;7.60;99.90;;;;;;5135421;27;20391;-62
2021/10/13 05:10:29;;;;;;;;;;;7.60;99.90;;;;;;5117446;27;20066;-62
2021/10/13 05:12:55;;;;;;;13.15;7.18;;;7.60;99.90;;;;;;5135367;27;20052;-61
2021/10/13 05:15:23;;;;;;;13.30;8.40;;;7.60;99.90;;;;;;5135555;27;20106;-63
2021/10/13 05:17:48;;;;;;;12.50;7.40;;;7.60;99.90;;;;;;5135557;27;20023;-63
2021/10/13 05:20:14;;;;;;;14.37;7.67;;;7.60;99.90;;;;;;5135132;27;20058;-61
2021/10/13 05:22:40;;;;;;;10.90;8.13;;;7.60;99.90;;;;;;5135450;27;20029;-67
2021/10/13 05:25:06;;;;;;;16.40;8.47;;;7.60;99.90;;;;;;5116414;27;20498;-62
2021/10/13 05:27:32;;;;;;;15.27;8.43;;;7.60;99.90;;;;;;5134927;27;20472;-61
2021/10/13 05:29:58;;;;;;;14.43;8.37;;;7.70;99.90;;;;;;5134981;27;20426;-65
2021/10/13 05:32:23;;;;;;;13.47;8.10;;;7.70;99.90;;;;;;5135453;27;20023;-65
2021/10/13 05:34:49;;;;;;;13.07;8.20;;;7.70;99.90;;;;;;5134935;27;20057;-65
2021/10/13 05:37:15;;;;;;;14.67;8.23;;;7.80;99.90;;;;;;5135172;27;20023;-66
2021/10/13 05:39:40;;;;;;;10.87;7.37;;;7.80;99.90;;;;;;5134825;27;20495;-65
2021/10/13 05:42:06;;;;;;;15.80;8.03;;;7.80;99.90;;;;;;5134482;27;20072;-66
2021/10/13 05:44:32;;;;;;;10.85;7.57;;;7.80;99.90;;;;;;5135118;27;20421;-65
2021/10/13 05:46:57;;;;;;;13.53;8.00;;;7.80;99.90;;;;;;5134702;27;20027;-65
2021/10/13 05:49:23;;;;;;;11.17;7.40;;;7.80;99.90;;;;;;5116097;27;20332;-66
2021/10/13 05:51:49;;;;;;;13.40;7.73;;;7.80;99.90;;;;;;5134663;27;20072;-65
2021/10/13 05:54:14;;;;;;;11.43;7.40;;;7.90;99.90;;;;;;5134827;27;20027;-65
2021/10/13 05:56:40;;;;;;;14.63;7.57;;;7.90;99.90;;;;;;5135050;27;20087;-65
2021/10/13 05:59:06;;;;;;;24.80;13.57;;;8.20;99.90;;;;;;5116357;28;20029;-65
2021/10/13 06:01:32;;;;;;;15.00;8.68;;;8.20;99.90;;;;;;5116349;27;20020;-65
2021/10/13 06:03:58;;;;;;;12.98;7.88;;;8.20;99.90;;;;;;5117269;27;20019;-66
2021/10/13 06:06:23;;;;;;;21.30;12.00;;;8.30;99.90;;;;;;5135395;27;20402;-67
2021/10/13 06:08:49;;;;;;;27.07;12.83;;;8.40;99.90;;;;;;5135545;27;20025;-63
2021/10/13 06:11:16;;;;;;;13.27;6.67;;;8.30;99.90;;;;;;5116819;27;20455;-65
2021/10/13 06:13:43;;;;;;;11.90;6.65;;;8.50;99.90;;;;;;5134859;27;20026;-62
2021/10/13 06:16:10;;;;;;;11.90;7.38;;;8.50;99.90;;;;;;5134333;27;20027;-65
2021/10/13 06:18:36;;;;;;;15.27;8.98;;;8.60;99.90;;;;;;5134924;27;20087;-63
2021/10/13 06:21:02;;;;;;;14.48;8.02;;;8.50;99.90;;;;;;5115630;28;20031;-63
2021/10/13 06:23:27;;;;;;;25.77;15.67;;;8.40;99.90;;;;;;5134274;28;20031;-63
2021/10/13 06:25:53;;;;;;;21.33;12.00;;;8.30;99.90;;;;;;5134309;28;20050;-64
2021/10/13 06:28:19;;;;;;;12.53;7.80;;;8.20;99.90;;;;;;5134395;28;20261;-64
2021/10/13 06:30:44;;;;;;;14.97;8.30;;;8.30;99.90;;;;;;5134044;28;20031;-61
2021/10/13 06:33:10;;;;;;;18.90;11.30;;;8.30;99.90;;;;;;5134321;28;20137;-63
2021/10/13 06:35:35;;;;;;;15.00;7.80;;;8.40;99.90;;;;;;5134328;28;20079;-63
2021/10/13 06:38:01;;;;;;;13.77;6.83;;;8.70;99.90;;;;;;5134420;28;20074;-63
2021/10/13 06:40:27;;;;;;;11.83;7.03;;;8.90;99.90;;;;;;5133957;28;20104;-63
2021/10/13 06:42:53;;;;;;;11.48;7.15;;;9.00;99.90;;;;;;5134112;28;20035;-63
2021/10/13 06:45:19;;;;;;;13.13;8.07;;;9.00;99.90;;;;;;5116850;28;20031;-62
2021/10/13 06:47:44;;;;;;;22.05;11.90;;;9.00;99.90;;;;;;5115893;28;20032;-63
2021/10/13 06:50:11;;;;;;;15.73;8.27;;;8.90;99.90;;;;;;5135819;28;20114;-64
2021/10/13 06:52:37;;;;;;;18.63;9.52;;;8.80;99.90;;;;;;5134315;27;20479;-63
2021/10/13 06:55:05;;;;;;;12.67;7.50;;;8.80;99.90;;;;;;5136970;27;20061;-63
2021/10/13 06:57:30;;;;;;;16.60;9.57;;;8.90;99.90;;;;;;5119403;27;20027;-62
2021/10/13 06:59:56;;;;;;;14.53;8.27;;;8.90;99.90;;;;;;5137825;27;20061;-63
2021/10/13 07:02:22;;;;;;;18.23;9.53;;;8.90;99.90;;;;;;5137662;27;20019;-64
2021/10/13 07:04:47;;;;;;;15.80;9.57;;;8.80;99.90;;;;;;5137463;27;20462;-64
2021/10/13 07:07:13;;;;;;;18.97;11.47;;;8.80;99.90;;;;;;5137932;27;20506;-63
2021/10/13 07:09:38;;;;;;;13.27;7.93;;;8.80;99.90;;;;;;5137762;27;20425;-63
2021/10/13 07:12:04;;;;;;;13.27;8.10;;;8.80;99.90;;;;;;5137924;27;20027;-63
2021/10/13 07:14:30;;;;;;;15.32;8.68;;;9.00;99.90;;;;;;5118915;27;20057;-63
2021/10/13 07:16:56;;;;;;;17.13;8.83;;;9.10;99.90;;;;;;5137799;27;20027;-62
2021/10/13 07:19:21;;;;;;;16.63;8.70;;;9.00;99.90;;;;;;5118882;27;20116;-62
2021/10/13 07:21:47;;;;;;;17.83;9.60;;;8.80;99.90;;;;;;5137661;27;20386;-63
2021/10/13 07:24:12;;;;;;;15.27;8.77;;;8.80;99.90;;;;;;5137597;27;20494;-63
2021/10/13 07:26:41;;;;;;;14.17;8.60;;;8.80;99.90;;;;;;5137999;27;20027;-62
2021/10/13 07:29:07;;;;;;;14.27;8.93;;;8.80;99.90;;;;;;5137739;27;20015;-63
2021/10/13 07:31:33;;;;;;;13.47;8.57;;;8.80;99.90;;;;;;5137522;27;20114;-63
2021/10/13 07:33:59;;;;;;;14.43;7.87;;;8.90;99.90;;;;;;5118866;27;20050;-63
2021/10/13 07:36:25;;;;;;;14.48;8.55;;;9.00;99.90;;;;;;5118633;27;20781;-64
2021/10/13 07:38:50;;;;;;;14.00;7.88;;;9.10;99.90;;;;;;5118607;27;20030;-64
2021/10/13 07:41:17;;;;;;;13.30;7.47;;;9.30;99.90;;;;;;5118321;27;20015;-63
2021/10/13 07:43:43;;;;;;;11.07;7.13;;;9.20;99.90;;;;;;5119295;27;20055;-63
2021/10/13 07:46:11;;;;;;;11.60;7.23;;;9.20;99.90;;;;;;5137592;27;20490;-63
2021/10/13 07:48:37;;;;;;;12.55;7.30;;;9.30;99.90;;;;;;5118899;27;20527;-62
2021/10/13 07:51:03;;;;;;;12.93;7.63;;;9.30;99.90;;;;;;5136965;27;20483;-62
2021/10/13 07:53:29;;;;;;;12.27;7.27;;;9.40;99.90;;;;;;5136780;27;20027;-64
2021/10/13 07:55:54;;;;;;;14.52;7.70;;;9.50;99.90;;;;;;5136827;27;20239;-63
2021/10/13 07:58:20;;;;;;;16.48;6.82;;;9.60;99.90;;;;;;5118572;27;20038;-63
2021/10/13 08:00:46;;;;;;;11.20;6.53;;;9.90;99.90;;;;;;5136483;27;20042;-63
2021/10/13 08:03:11;;;;;;;12.47;7.33;;;10.00;99.90;;;;;;5136897;27;20028;-62
2021/10/13 08:05:40;;;;;;;11.37;6.73;;;10.20;99.90;;;;;;5136662;27;20387;-61
2021/10/13 08:08:06;;;;;;;14.30;7.50;;;10.20;99.90;;;;;;5118081;27;20057;-63
2021/10/13 08:10:32;;;;;;;13.95;9.18;;;10.20;99.90;;;;;;5118392;27;20049;-63
2021/10/13 08:12:59;;;;;;;12.30;7.57;;;10.20;99.90;;;;;;5136698;27;20027;-63
2021/10/13 08:15:28;;;;;;;13.20;7.43;;;10.20;99.90;;;;;;5136356;27;20277;-64
2021/10/13 08:17:53;;;;;;;13.43;7.10;;;10.20;99.90;;;;;;5136327;27;20072;-61
2021/10/13 08:20:19;;;;;;;14.38;7.63;;;10.10;99.90;;;;;;5136833;27;20031;-62
2021/10/13 08:22:48;;;;;;;12.52;6.90;;;10.20;99.90;;;;;;5117715;27;20053;-62
2021/10/13 08:25:14;;;;;;;16.88;8.60;;;10.20;99.90;;;;;;5136608;27;20030;-62
2021/10/13 08:27:40;;;;;;;;;;;10.30;99.90;;;;;;5136861;27;20031;-63
2021/10/13 08:30:07;;;;;;;12.18;7.18;;;10.30;99.90;;;;;;5118420;27;19926;-63
2021/10/13 08:32:32;;;;;;;13.43;8.75;;;10.40;99.90;;;;;;5137891;27;20126;-64
2021/10/13 08:34:58;;;;;;;17.00;8.50;;;10.60;99.90;;;;;;5136125;27;20479;-63
2021/10/13 08:37:24;;;;;;;11.38;6.80;;;10.70;99.90;;;;;;5117709;27;20026;-64
2021/10/13 08:39:50;;;;;;;11.20;6.10;;;10.80;99.90;;;;;;5136157;27;20030;-63
2021/10/13 08:42:21;;;;;;;9.77;5.90;;;10.90;99.90;;;;;;5136117;27;20248;-64
2021/10/13 08:44:47;;;;;;;11.63;6.60;;;11.00;99.90;;;;;;5136177;27;20043;-64
2021/10/13 08:47:13;;;;;;;12.57;6.43;;;11.00;99.90;;;;;;5137537;27;20028;-63
2021/10/13 08:49:39;;;;;;;15.03;7.53;;;11.00;99.90;;;;;;5122591;27;20418;-64
2021/10/13 08:52:09;;;;;;;14.77;7.53;;;11.00;99.90;;;;;;5137609;27;20779;-63
2021/10/13 08:54:36;;;;;;;13.95;6.88;;;11.00;99.90;;;;;;5136213;27;20020;-62
2021/10/13 08:57:18;;;;;;;10.05;6.05;;;11.00;99.90;;;;;;5136021;27;20351;-62
2021/10/13 08:59:47;;;;;;;15.23;7.00;;;11.00;99.90;;;;;;5136268;27;20387;-62
2021/10/13 09:02:13;;;;;;;13.38;6.05;;;10.90;99.90;;;;;;5118588;27;20504;-63
2021/10/13 09:04:40;;;;;;;14.68;5.63;;;10.90;99.90;;;;;;5117614;27;20121;-63
2021/10/13 09:07:06;;;;;;;16.88;6.00;;;10.80;99.90;;;;;;5135594;27;20027;-63
2021/10/13 09:09:32;;;;;;;15.73;6.47;;;10.90;99.90;;;;;;5135620;27;20042;-63
2021/10/13 09:11:58;;;;;;;15.20;6.20;;;11.00;99.90;;;;;;5135082;27;20023;-63
2021/10/13 09:14:31;;;;;;;10.50;5.75;;;11.00;99.90;;;;;;5135350;27;20494;-62
2021/10/13 09:16:58;;;;;;;11.63;5.70;;;11.10;99.90;;;;;;5134835;27;20081;-62
2021/10/13 09:19:37;;;;;;;9.35;6.32;;;11.10;99.90;;;;;;5135531;27;20023;-63
2021/10/13 09:22:04;;;;;;;14.75;6.47;;;11.30;99.90;;;;;;5135250;27;20025;-63
2021/10/13 09:24:32;;;;;;;15.38;5.30;;;11.40;99.90;;;;;;5135147;27;20118;-63
2021/10/13 09:27:16;;;;;;;9.02;5.28;;;11.70;99.90;;;;;;5135233;27;20019;-63
2021/10/13 09:29:43;;;;;;;10.93;5.57;;;11.90;99.90;;;;;;5116765;27;20020;-63
2021/10/13 09:32:09;;;;;;;10.25;4.75;;;12.10;99.90;;;;;;5134752;27;20019;-63
2021/10/13 09:34:35;;;;;;;10.65;4.13;;;12.20;99.90;;;;;;5134668;27;20023;-63
2021/10/13 09:37:01;;;;;;;10.57;3.83;;;12.40;99.90;;;;;;5116536;27;20066;-63
2021/10/13 09:39:29;;;;;;;7.70;4.05;;;12.70;99.90;;;;;;5134957;27;20019;-63
2021/10/13 09:41:54;;;;;;;10.27;5.03;;;13.00;99.90;;;;;;5116271;27;20023;-63
2021/10/13 09:44:20;;;;;;;11.50;6.63;;;13.30;99.90;;;;;;5116428;27;20019;-63
2021/10/13 09:46:48;;;;;;;10.50;4.63;;;13.50;99.90;;;;;;5135095;27;20031;-63
2021/10/13 09:49:24;;;;;;;7.55;3.40;;;13.90;99.90;;;;;;5116138;27;20112;-63
2021/10/13 09:51:49;;;;;;;8.50;4.50;;;14.50;99.90;;;;;;5135259;27;20024;-64
2021/10/13 09:54:15;;;;;;;9.40;4.30;;;14.50;99.90;;;;;;5134766;27;20049;-64
2021/10/13 09:56:40;;;;;;;8.43;4.10;;;14.10;99.90;;;;;;5135064;27;20279;-63
2021/10/13 09:59:17;;;;;;;8.27;3.67;;;14.00;99.90;;;;;;5135125;27;20027;-63
2021/10/13 10:01:45;;;;;;;9.77;5.25;;;14.30;99.90;;;;;;5116451;28;20031;-63
2021/10/13 10:04:15;;;;;;;10.77;4.55;;;14.60;99.90;;;;;;5117626;27;20380;-63
2021/10/13 10:06:43;;;;;;;7.75;4.03;;;14.50;99.90;;;;;;5134574;27;20058;-64
2021/10/13 10:09:14;;;;;;;7.05;4.20;;;14.30;99.90;;;;;;5134793;27;20098;-64
2021/10/13 10:11:40;;;;;;;9.13;4.85;;;14.00;99.90;;;;;;5134321;27;20102;-63
2021/10/13 10:14:31;;;;;;;7.63;3.67;;;13.80;99.90;;;;;;5134472;27;20428;-64
2021/10/13 10:16:57;;;;;;;8.98;4.20;;;13.70;99.90;;;;;;5134094;27;20027;-64
2021/10/13 10:19:27;;;;;;;10.68;5.00;;;13.50;99.90;;;;;;5116394;28;20087;-62
2021/10/13 10:22:06;;;;;;;10.80;3.90;;;13.50;99.90;;;;;;5134289;27;20126;-62
2021/10/13 10:24:34;;;;;;;10.55;3.85;;;13.40;99.90;;;;;;5134443;28;20050;-62
2021/10/13 10:27:28;;;;;;;8.52;4.05;;;13.50;99.90;;;;;;5134183;28;20019;-62
2021/10/13 10:30:09;;;;;;;8.15;3.63;;;13.50;99.90;;;;;;5138251;27;20028;-62
2021/10/13 10:33:05;;;;;;;7.82;4.00;;;13.40;99.90;;;;;;5139633;27;20019;-62
2021/10/13 10:35:41;;;;;;;10.32;5.60;;;13.50;99.90;;;;;;5127621;27;20042;-62
2021/10/13 10:38:07;;;;;;;8.35;3.88;;;13.60;99.90;;;;;;5138213;27;20012;-63
2021/10/13 10:40:34;;;;;;;;;;;14.30;99.90;;;;;;5120156;27;20023;-63
2021/10/13 10:43:02;;;;;;;12.05;6.07;;;15.20;99.90;;;;;;5138112;27;19961;-62
2021/10/13 10:45:31;;;;;;;10.27;5.30;;;15.40;99.90;;;;;;5137984;27;20019;-63
2021/10/13 10:48:05;;;;;;;15.02;4.30;;;15.20;99.90;;;;;;5138399;27;20535;-63
2021/10/13 10:50:36;;;;;;;10.95;3.75;;;15.10;99.90;;;;;;5138150;27;20047;-63
2021/10/13 10:53:30;;;;;;;8.05;3.30;;;14.90;99.90;;;;;;5138622;27;20019;-63
2021/10/13 10:56:09;;;;;;;6.32;3.58;;;14.70;99.90;;;;;;5137978;27;20025;-63
2021/10/13 10:58:36;;;;;;;7.30;3.13;;;14.40;99.90;;;;;;5119469;27;20115;-62
2021/10/13 11:01:12;;;;;;;8.68;3.63;;;14.10;99.90;;;;;;5137906;27;20023;-62
2021/10/13 11:03:40;;;;;;;9.63;3.67;;;13.80;99.90;;;;;;5138183;27;20054;-63
2021/10/13 11:06:15;;;;;;;9.07;3.38;;;13.70;99.90;;;;;;5138503;27;20083;-63
2021/10/13 11:08:50;;;;;;;9.63;5.38;;;13.60;99.90;;;;;;5138299;27;20026;-63
2021/10/13 11:11:16;;;;;;;6.50;3.30;;;13.60;99.90;;;;;;5138483;27;20035;-64
2021/10/13 11:13:53;;;;;;;;;;;13.60;99.90;;;;;;5139157;27;20030;-62
2021/10/13 11:16:18;;;;;;;7.85;3.85;;;13.60;99.90;;;;;;5138276;27;19951;-62
2021/10/13 11:18:44;;;;;;;7.33;3.90;;;13.70;99.90;;;;;;5138329;27;20375;-62
2021/10/13 11:21:10;;;;;;;8.30;3.23;;;13.60;99.90;;;;;;5138084;27;20075;-62
2021/10/13 11:23:37;;;;;;;5.80;2.80;;;13.50;99.90;;;;;;5137975;27;20257;-62
2021/10/13 11:26:03;;;;;;;7.45;3.00;;;13.20;99.90;;;;;;5137345;27;20037;-63
2021/10/13 11:28:37;;;;;;;8.73;2.33;;;13.10;99.90;;;;;;5139133;27;20027;-63
2021/10/13 11:31:11;;;;;;;17.85;5.00;;;12.90;99.90;;;;;;5121743;27;20031;-63
2021/10/13 11:33:38;;;;;;;9.20;3.10;;;12.80;99.90;;;;;;5137859;27;20154;-63
2021/10/13 11:36:06;;;;;;;11.00;3.00;;;13.00;99.90;;;;;;5137342;27;20074;-63
2021/10/13 11:38:35;;;;;;;11.93;3.72;;;13.20;99.90;;;;;;5137774;27;20015;-63
2021/10/13 11:41:09;;;;;;;9.60;3.35;;;13.30;99.90;;;;;;5118365;27;20016;-64
2021/10/13 11:43:36;;;;;;;4.75;1.83;;;13.30;99.90;;;;;;5137871;27;20011;-64
2021/10/13 11:46:03;;;;;;;11.32;4.10;;;13.10;99.90;;;;;;5118617;27;20035;-63
2021/10/13 11:48:29;;;;;;;;;;;13.20;99.90;;;;;;5137609;27;20023;-64
2021/10/13 11:50:58;;;;;;;6.50;2.90;;;13.20;99.90;;;;;;5137533;27;19923;-64
2021/10/13 11:53:24;;;;;;;5.13;2.03;;;13.20;99.90;;;;;;5137743;27;20106;-64
2021/10/13 11:55:49;;;;;;;9.30;2.13;;;13.20;99.90;;;;;;5137155;27;20098;-64
2021/10/13 11:58:34;;;;;;;5.60;2.75;;;13.20;99.90;;;;;;5137615;27;20058;-62
2021/10/13 12:00:59;;;;;;;5.38;2.38;;;13.10;99.90;;;;;;5138075;27;20084;-61
2021/10/13 12:03:29;;;;;;;4.55;2.58;;;13.00;99.90;;;;;;5136992;27;20023;-60
2021/10/13 12:05:58;;;;;;;6.40;2.70;;;12.80;99.90;;;;;;5136512;27;20479;-62
2021/10/13 12:08:42;;;;;;;11.18;3.42;;;12.70;99.90;;;;;;5136645;27;20399;-67
2021/10/13 12:11:19;;;;;;;5.65;2.65;;;12.50;99.90;;;;;;5137616;27;20050;-67
2021/10/13 12:13:48;;;;;;;5.03;2.35;;;12.30;99.90;;;;;;5138986;27;20050;-67
2021/10/13 12:16:19;;;;;;;7.03;2.47;;;11.90;99.90;;;;;;5137646;27;20035;-64
2021/10/13 12:18:46;;;;;;;7.78;2.78;;;11.70;99.90;;;;;;5137870;27;20026;-66
2021/10/13 12:21:16;;;;;;;8.65;2.40;;;11.60;99.90;;;;;;5137177;27;20064;-66
2021/10/13 12:23:50;;;;;;;8.80;2.38;;;11.40;99.90;;;;;;5136558;27;20481;-65
2021/10/13 12:26:23;;;;;;;7.18;2.80;;;11.20;99.90;;;;;;5136887;27;20019;-66
2021/10/13 12:28:51;;;;;;;9.30;2.63;;;11.00;99.90;;;;;;5137047;27;20023;-62
2021/10/13 12:31:35;;;;;;;5.50;2.40;;;11.00;99.90;;;;;;5118024;27;20088;-63
2021/10/13 12:34:02;;;;;;;3.42;1.85;;;11.00;99.90;;;;;;5135987;27;20023;-63
2021/10/13 12:36:36;;;;;;;5.25;2.20;;;11.00;99.90;;;;;;5117719;27;20027;-64
2021/10/13 12:39:07;;;;;;;4.80;2.00;;;11.00;99.90;;;;;;5117235;27;20511;-64
2021/10/13 12:41:39;;;;;;;3.47;1.73;;;10.90;99.90;;;;;;5136644;27;20030;-66
2021/10/13 12:44:22;;;;;;;4.70;2.00;;;10.80;99.90;;;;;;5118309;27;20037;-63
2021/10/13 12:47:00;;;;;;;4.78;2.00;;;10.80;99.90;;;;;;5135882;27;20364;-64
2021/10/13 12:49:33;;;;;;;6.18;1.98;;;10.80;99.90;;;;;;5136787;27;20019;-65
2021/10/13 12:52:08;;;;;;;5.95;2.22;;;10.90;99.90;;;;;;5116471;27;20027;-61
2021/10/13 12:54:38;;;;;;;4.68;2.00;;;11.00;99.90;;;;;;5137852;27;20052;-65